createdAt,value
2019-03-16T00:00:29.645Z,9.03
2019-03-16T00:04:29.604Z,9.03
2019-03-16T00:06:29.638Z,9.03
2019-03-16T00:10:29.661Z,9.01
2019-03-16T00:12:30.455Z,9.00
2019-03-16T00:16:29.635Z,9.00
2019-03-16T00:18:29.613Z,9.01
2019-03-16T00:22:29.620Z,8.99
2019-03-16T00:24:29.634Z,8.98
2019-03-16T00:28:29.665Z,8.97
2019-03-16T00:30:29.653Z,8.98
2019-03-16T00:34:29.650Z,8.97
2019-03-16T00:36:29.659Z,8.97
2019-03-16T00:40:29.637Z,8.95
2019-03-16T00:42:31.580Z,8.94
2019-03-16T00:46:29.618Z,8.95
2019-03-16T00:48:29.685Z,8.94
2019-03-16T00:52:29.664Z,8.92
2019-03-16T00:54:29.654Z,8.92
2019-03-16T00:58:29.642Z,8.92
2019-03-16T01:00:36.433Z,8.91
2019-03-16T01:04:29.651Z,8.90
2019-03-16T01:06:29.676Z,8.89
2019-03-16T01:10:29.648Z,8.90
2019-03-16T01:12:34.286Z,8.89
2019-03-16T01:16:29.641Z,8.89
2019-03-16T01:18:29.693Z,8.90
2019-03-16T01:24:29.644Z,8.88
2019-03-16T01:26:29.676Z,8.87
2019-03-16T01:30:29.671Z,8.85
2019-03-16T01:32:40.072Z,8.85
2019-03-16T01:36:29.673Z,8.84
2019-03-16T01:38:29.655Z,8.83
2019-03-16T01:42:38.680Z,8.82
2019-03-16T01:44:29.689Z,8.83
2019-03-16T01:48:29.640Z,8.82
2019-03-16T01:50:34.198Z,8.80
2019-03-16T01:54:29.671Z,8.80
2019-03-16T01:56:29.682Z,8.81
2019-03-16T02:00:33.975Z,8.82
2019-03-16T02:02:29.674Z,8.80
2019-03-16T02:06:29.664Z,8.80
2019-03-16T02:08:29.663Z,8.80
2019-03-16T02:12:29.683Z,8.79
2019-03-16T02:14:30.470Z,8.79
2019-03-16T02:18:34.276Z,8.80
2019-03-16T02:20:29.700Z,8.78
2019-03-16T02:24:29.707Z,8.78
2019-03-16T02:26:29.655Z,8.78
2019-03-16T02:30:29.686Z,8.78
2019-03-16T02:32:34.304Z,8.77
2019-03-16T02:36:34.702Z,8.76
2019-03-16T02:38:29.675Z,8.76
2019-03-16T02:42:29.750Z,8.75
2019-03-16T02:44:29.674Z,8.76
2019-03-16T02:48:29.689Z,8.75
2019-03-16T02:50:30.612Z,8.75
2019-03-16T02:54:29.706Z,8.73
2019-03-16T02:56:32.303Z,8.72
2019-03-16T03:00:29.694Z,8.73
2019-03-16T03:02:34.175Z,8.73
2019-03-16T03:06:29.702Z,8.71
2019-03-16T03:08:29.748Z,8.73
2019-03-16T03:12:39.650Z,8.71
2019-03-16T03:14:34.626Z,8.71
2019-03-16T03:18:34.868Z,8.71
2019-03-16T03:20:30.999Z,8.70
2019-03-16T03:24:29.726Z,8.70
2019-03-16T03:26:34.202Z,8.70
2019-03-16T03:30:29.679Z,8.69
2019-03-16T03:32:29.753Z,8.70
2019-03-16T03:36:30.901Z,8.70
2019-03-16T03:38:29.699Z,8.69
2019-03-16T03:42:29.752Z,8.70
2019-03-16T03:44:39.037Z,8.68
2019-03-16T03:48:34.970Z,8.68
2019-03-16T03:50:30.737Z,8.69
2019-03-16T03:54:29.852Z,8.68
2019-03-16T03:56:29.881Z,8.68
2019-03-16T04:00:34.002Z,8.68
2019-03-16T04:02:34.334Z,8.67
2019-03-16T04:06:29.740Z,8.67
2019-03-16T04:08:38.467Z,8.67
2019-03-16T04:12:29.745Z,8.66
2019-03-16T04:14:31.844Z,8.66
2019-03-16T04:18:32.690Z,8.65
2019-03-16T04:20:35.273Z,8.65
2019-03-16T04:24:29.731Z,8.65
2019-03-16T04:26:32.406Z,8.66
2019-03-16T04:30:29.721Z,8.66
2019-03-16T04:32:29.872Z,8.64
2019-03-16T04:36:29.710Z,8.64
2019-03-16T04:38:35.355Z,8.63
2019-03-16T04:44:38.976Z,8.65
2019-03-16T04:46:36.292Z,8.64
2019-03-16T04:50:29.747Z,8.62
2019-03-16T04:52:29.711Z,8.64
2019-03-16T04:56:33.848Z,8.63
2019-03-16T04:58:31.718Z,8.62
2019-03-16T05:02:34.504Z,8.63
2019-03-16T05:04:42.372Z,8.61
2019-03-16T05:08:29.892Z,8.62
2019-03-16T05:10:34.857Z,8.61
2019-03-16T05:14:35.326Z,8.60
2019-03-16T05:16:32.436Z,8.61
2019-03-16T05:20:29.852Z,8.60
2019-03-16T05:22:29.731Z,8.61
2019-03-16T05:26:34.759Z,8.60
2019-03-16T05:28:35.308Z,8.59
2019-03-16T05:32:35.298Z,8.58
2019-03-16T05:34:34.771Z,8.58
2019-03-16T05:38:29.883Z,8.58
2019-03-16T05:40:29.904Z,8.58
2019-03-16T05:44:34.931Z,8.57
2019-03-16T05:46:31.888Z,8.57
2019-03-16T05:50:34.792Z,8.58
2019-03-16T05:52:34.728Z,8.57
2019-03-16T05:56:29.900Z,8.57
2019-03-16T05:58:34.241Z,8.57
2019-03-16T06:02:29.849Z,8.55
2019-03-16T06:04:34.695Z,8.55
2019-03-16T06:08:34.500Z,8.54
2019-03-16T06:10:31.341Z,8.55
2019-03-16T06:14:32.522Z,8.55
2019-03-16T06:16:32.436Z,8.54
2019-03-16T06:20:32.447Z,8.54
2019-03-16T06:22:34.789Z,8.54
2019-03-16T06:26:32.687Z,8.54
2019-03-16T06:28:32.458Z,8.52
2019-03-16T06:32:29.848Z,8.53
2019-03-16T06:34:35.005Z,8.52
2019-03-16T06:38:32.639Z,8.52
2019-03-16T06:40:32.711Z,8.52
2019-03-16T06:44:29.924Z,8.52
2019-03-16T06:46:36.554Z,8.51
2019-03-16T06:50:34.965Z,8.52
2019-03-16T06:52:34.979Z,8.50
2019-03-16T06:56:29.907Z,8.51
2019-03-16T06:58:32.079Z,8.51
2019-03-16T07:02:29.941Z,8.50
2019-03-16T07:04:34.242Z,8.49
2019-03-16T07:08:39.333Z,8.48
2019-03-16T07:10:35.199Z,8.48
2019-03-16T07:14:34.195Z,8.50
2019-03-16T07:16:33.843Z,8.48
2019-03-16T07:20:31.659Z,8.48
2019-03-16T07:22:34.980Z,8.48
2019-03-16T07:28:35.112Z,8.48
2019-03-16T07:30:31.416Z,8.48
2019-03-16T07:34:29.914Z,8.47
2019-03-16T07:36:29.834Z,8.47
2019-03-16T07:40:34.957Z,8.44
2019-03-16T07:42:35.011Z,8.45
2019-03-16T07:46:31.119Z,8.47
2019-03-16T07:48:31.249Z,8.46
2019-03-16T07:52:34.743Z,8.42
2019-03-16T07:54:32.829Z,8.42
2019-03-16T07:58:29.810Z,8.43
2019-03-16T08:00:32.223Z,8.44
2019-03-16T08:04:29.818Z,8.44
2019-03-16T08:06:33.447Z,8.43
2019-03-16T08:10:29.792Z,8.43
2019-03-16T08:12:34.744Z,8.42
2019-03-16T08:16:34.989Z,8.43
2019-03-16T08:18:35.418Z,8.42
2019-03-16T08:22:29.850Z,8.42
2019-03-16T08:24:29.785Z,8.42
2019-03-16T08:28:34.372Z,8.43
2019-03-16T08:30:29.832Z,8.42
2019-03-16T08:34:38.790Z,8.41
2019-03-16T08:36:29.816Z,8.42
2019-03-16T08:40:29.812Z,8.43
2019-03-16T08:42:29.825Z,8.43
2019-03-16T08:46:29.796Z,8.43
2019-03-16T08:48:29.821Z,8.42
2019-03-16T08:52:29.815Z,8.43
2019-03-16T08:54:34.415Z,8.43
2019-03-16T08:58:35.721Z,8.44
2019-03-16T09:00:29.799Z,8.44
2019-03-16T09:04:29.922Z,8.44
2019-03-16T09:06:29.820Z,8.44
2019-03-16T09:10:29.843Z,8.45
2019-03-16T09:12:34.213Z,8.45
2019-03-16T09:16:29.800Z,8.45
2019-03-16T09:18:35.017Z,8.45
2019-03-16T09:22:29.881Z,8.46
2019-03-16T09:24:29.962Z,8.48
2019-03-16T09:28:29.852Z,8.48
2019-03-16T09:30:29.884Z,8.49
2019-03-16T09:34:29.824Z,8.50
2019-03-16T09:36:29.834Z,8.50
2019-03-16T09:40:29.824Z,8.51
2019-03-16T09:46:29.832Z,8.52
2019-03-16T09:48:34.188Z,8.52
2019-03-16T09:52:29.826Z,8.53
2019-03-16T09:54:29.829Z,8.54
2019-03-16T09:58:31.474Z,8.55
2019-03-16T10:00:29.862Z,8.55
2019-03-16T10:04:29.852Z,8.57
2019-03-16T10:06:29.816Z,8.57
2019-03-16T10:10:29.826Z,8.58
2019-03-16T10:12:29.852Z,8.59
2019-03-16T10:16:29.844Z,8.60
2019-03-16T10:18:29.847Z,8.60
2019-03-16T10:22:29.860Z,8.62
2019-03-16T10:24:29.811Z,8.61
2019-03-16T10:28:29.883Z,8.64
2019-03-16T10:30:30.220Z,8.64
2019-03-16T10:34:29.836Z,8.66
2019-03-16T10:36:29.831Z,8.65
2019-03-16T10:40:31.921Z,8.67
2019-03-16T10:42:31.820Z,8.69
2019-03-16T10:46:31.862Z,8.69
2019-03-16T10:48:31.473Z,8.70
2019-03-16T10:52:31.555Z,8.72
2019-03-16T10:54:32.627Z,8.72
2019-03-16T10:58:29.810Z,8.73
2019-03-16T11:00:29.823Z,8.74
2019-03-16T11:04:29.868Z,8.74
2019-03-16T11:06:29.860Z,8.74
2019-03-16T11:10:29.848Z,8.75
2019-03-16T11:12:29.852Z,8.76
2019-03-16T11:16:29.836Z,8.77
2019-03-16T11:18:29.845Z,8.78
2019-03-16T11:22:29.858Z,8.78
2019-03-16T11:24:32.169Z,8.79
2019-03-16T11:28:29.843Z,8.80
2019-03-16T11:30:29.846Z,8.81
2019-03-16T11:34:29.930Z,8.81
2019-03-16T11:36:29.834Z,8.83
2019-03-16T11:40:29.852Z,8.82
2019-03-16T11:42:29.878Z,8.83
2019-03-16T11:46:29.871Z,8.84
2019-03-16T11:48:29.877Z,8.85
2019-03-16T11:52:29.867Z,8.86
2019-03-16T11:54:29.853Z,8.87
2019-03-16T11:58:29.857Z,8.88
2019-03-16T12:00:31.938Z,8.89
2019-03-16T12:04:29.857Z,8.90
2019-03-16T12:06:30.392Z,8.90
2019-03-16T12:10:29.875Z,8.91
2019-03-16T12:12:29.866Z,8.91
2019-03-16T12:16:29.872Z,8.94
2019-03-16T12:18:29.864Z,8.94
2019-03-16T12:22:29.875Z,8.94
2019-03-16T12:24:29.882Z,8.96
2019-03-16T12:28:29.891Z,8.96
2019-03-16T12:30:29.868Z,8.98
2019-03-16T12:34:29.878Z,8.98
2019-03-16T12:36:29.874Z,9.00
2019-03-16T12:40:29.893Z,9.00
2019-03-16T12:42:29.896Z,9.01
2019-03-16T12:46:29.886Z,9.02
2019-03-16T12:48:29.883Z,9.02
2019-03-16T12:52:29.883Z,9.04
2019-03-16T12:54:29.881Z,9.04
2019-03-16T13:00:29.873Z,9.05
2019-03-16T13:02:30.632Z,9.06
2019-03-16T13:06:29.890Z,9.07
2019-03-16T13:08:29.885Z,9.08
2019-03-16T13:12:29.906Z,9.08
2019-03-16T13:14:29.885Z,9.09
2019-03-16T13:18:35.088Z,9.10
2019-03-16T13:20:29.881Z,9.11
2019-03-16T13:24:31.588Z,9.12
2019-03-16T13:26:31.514Z,9.12
2019-03-16T13:30:33.415Z,9.14
2019-03-16T13:32:31.358Z,9.14
2019-03-16T13:36:31.385Z,9.15
2019-03-16T13:38:31.247Z,9.16
2019-03-16T13:42:29.910Z,9.16
2019-03-16T13:44:29.871Z,9.16
2019-03-16T13:48:29.897Z,9.18
2019-03-16T13:50:29.884Z,9.19
2019-03-16T13:54:29.909Z,9.20
2019-03-16T13:56:29.912Z,9.20
2019-03-16T14:00:29.878Z,9.22
2019-03-16T14:02:29.929Z,9.23
2019-03-16T14:06:29.905Z,9.24
2019-03-16T14:08:29.928Z,9.24
2019-03-16T14:12:29.904Z,9.25
2019-03-16T14:14:29.887Z,9.26
2019-03-16T14:18:29.898Z,9.28
2019-03-16T14:20:29.998Z,9.28
2019-03-16T14:24:29.931Z,9.28
2019-03-16T14:26:29.885Z,9.30
2019-03-16T14:32:29.913Z,9.32
2019-03-16T14:36:29.882Z,9.32
2019-03-16T14:38:34.482Z,9.33
2019-03-16T14:42:29.923Z,9.33
2019-03-16T14:44:29.935Z,9.34
2019-03-16T14:48:29.922Z,9.35
2019-03-16T14:50:29.934Z,9.36
2019-03-16T14:54:29.925Z,9.37
2019-03-16T14:56:29.914Z,9.37
2019-03-16T15:00:38.263Z,9.37
2019-03-16T15:02:29.923Z,9.38
2019-03-16T15:06:29.940Z,9.39
2019-03-16T15:08:29.944Z,9.39
2019-03-16T15:12:29.911Z,9.41
2019-03-16T15:14:29.929Z,9.41
2019-03-16T15:18:29.914Z,9.42
2019-03-16T15:20:29.946Z,9.43
2019-03-16T15:24:29.942Z,9.44
2019-03-16T15:26:29.935Z,9.43
2019-03-16T15:30:29.951Z,9.44
2019-03-16T15:32:29.972Z,9.45
2019-03-16T15:36:29.920Z,9.46
2019-03-16T15:38:34.959Z,9.46
2019-03-16T15:42:29.965Z,9.47
2019-03-16T15:44:29.921Z,9.48
2019-03-16T15:48:29.984Z,9.48
2019-03-16T15:50:29.944Z,9.49
2019-03-16T15:54:29.930Z,9.48
2019-03-16T15:56:29.968Z,9.51
2019-03-16T16:00:29.980Z,9.51
2019-03-16T16:02:29.946Z,9.51
2019-03-16T16:06:29.958Z,9.53
2019-03-16T16:08:31.066Z,9.53
2019-03-16T16:12:30.179Z,9.54
2019-03-16T16:14:29.945Z,9.55
2019-03-16T16:18:34.302Z,9.57
2019-03-16T16:20:29.947Z,9.57
2019-03-16T16:24:29.952Z,9.57
2019-03-16T16:26:29.932Z,9.57
2019-03-16T16:30:29.969Z,9.59
2019-03-16T16:32:29.991Z,9.59
2019-03-16T16:36:34.959Z,9.60
2019-03-16T16:38:29.970Z,9.61
2019-03-16T16:42:30.023Z,9.61
2019-03-16T16:44:29.980Z,9.62
2019-03-16T16:48:29.999Z,9.62
2019-03-16T16:50:29.964Z,9.63
2019-03-16T16:54:29.999Z,9.63
2019-03-16T16:56:29.985Z,9.64
2019-03-16T17:00:29.981Z,9.66
2019-03-16T17:02:30.782Z,9.65
2019-03-16T17:06:30.007Z,9.65
2019-03-16T17:08:29.983Z,9.66
2019-03-16T17:14:29.977Z,9.67
2019-03-16T17:16:34.687Z,9.67
2019-03-16T17:20:29.980Z,9.68
2019-03-16T17:22:29.986Z,9.68
2019-03-16T17:26:29.990Z,9.69
2019-03-16T17:28:34.956Z,9.69
2019-03-16T17:32:30.002Z,9.69
2019-03-16T17:34:30.812Z,9.70
2019-03-16T17:38:29.997Z,9.70
2019-03-16T17:40:35.197Z,9.70
2019-03-16T17:44:30.008Z,9.70
2019-03-16T17:46:35.185Z,9.70
2019-03-16T17:50:30.034Z,9.70
2019-03-16T17:52:30.122Z,9.72
2019-03-16T17:56:29.998Z,9.72
2019-03-16T17:58:29.995Z,9.72
2019-03-16T18:02:29.978Z,9.71
2019-03-16T18:04:30.007Z,9.72
2019-03-16T18:08:30.007Z,9.73
2019-03-16T18:10:30.018Z,9.73
2019-03-16T18:14:30.040Z,9.74
2019-03-16T18:16:29.984Z,9.75
2019-03-16T18:22:29.989Z,9.75
2019-03-16T18:24:30.048Z,9.74
2019-03-16T18:28:30.018Z,9.75
2019-03-16T18:30:30.030Z,9.74
2019-03-16T18:34:30.010Z,9.74
2019-03-16T18:36:32.212Z,9.75
2019-03-16T18:40:30.045Z,9.80
2019-03-16T18:42:30.199Z,9.80
2019-03-16T18:46:30.032Z,9.80
2019-03-16T18:48:35.221Z,9.79
2019-03-16T18:52:35.584Z,9.80
2019-03-16T18:54:30.022Z,9.79
2019-03-16T18:58:37.064Z,9.79
2019-03-16T19:00:30.037Z,9.80
2019-03-16T19:04:30.172Z,9.79
2019-03-16T19:06:30.140Z,9.80
2019-03-16T19:10:30.019Z,9.79
2019-03-16T19:12:30.012Z,9.80
2019-03-16T19:16:30.125Z,9.79
2019-03-16T19:18:30.022Z,9.79
2019-03-16T19:22:30.181Z,9.80
2019-03-16T19:24:30.014Z,9.80
2019-03-16T19:28:30.175Z,9.79
2019-03-16T19:30:30.127Z,9.80
2019-03-16T19:34:30.134Z,9.80
2019-03-16T19:36:30.083Z,9.80
2019-03-16T19:40:34.937Z,9.82
2019-03-16T19:42:30.005Z,9.81
2019-03-16T19:46:35.110Z,9.83
2019-03-16T19:48:35.207Z,9.83
2019-03-16T19:52:30.162Z,9.82
2019-03-16T19:54:30.187Z,9.82
2019-03-16T19:58:30.032Z,9.83
2019-03-16T20:00:30.206Z,9.83
2019-03-16T20:04:36.067Z,9.82
2019-03-16T20:06:30.165Z,9.84
2019-03-16T20:10:30.193Z,9.84
2019-03-16T20:12:30.244Z,9.84
2019-03-16T20:16:30.085Z,9.86
2019-03-16T20:18:30.195Z,9.86
2019-03-16T20:22:30.139Z,9.86
2019-03-16T20:24:35.229Z,9.87
2019-03-16T20:28:30.115Z,9.88
2019-03-16T20:30:30.262Z,9.86
2019-03-16T20:34:32.078Z,9.86
2019-03-16T20:36:30.154Z,9.87
2019-03-16T20:40:30.142Z,9.87
2019-03-16T20:42:30.192Z,9.87
2019-03-16T20:46:32.741Z,9.88
2019-03-16T20:48:30.178Z,9.87
2019-03-16T20:52:30.081Z,9.88
2019-03-16T20:54:30.059Z,9.90
2019-03-16T20:58:30.196Z,9.90
2019-03-16T21:00:30.156Z,9.89
2019-03-16T21:04:30.193Z,9.90
2019-03-16T21:06:30.233Z,9.89
2019-03-16T21:10:30.092Z,9.90
2019-03-16T21:12:30.266Z,9.90
2019-03-16T21:16:30.084Z,9.90
2019-03-16T21:18:30.062Z,9.91
2019-03-16T21:22:36.199Z,9.89
2019-03-16T21:24:31.135Z,9.91
2019-03-16T21:28:30.262Z,9.91
2019-03-16T21:30:30.078Z,9.92
2019-03-16T21:34:30.087Z,9.92
2019-03-16T21:36:41.068Z,9.90
2019-03-16T21:42:30.209Z,9.91
2019-03-16T21:44:30.229Z,9.91
2019-03-16T21:48:30.223Z,9.92
2019-03-16T21:50:30.064Z,9.91
2019-03-16T21:54:30.295Z,9.92
2019-03-16T21:56:30.235Z,9.92
2019-03-16T22:00:30.342Z,9.93
2019-03-16T22:02:30.288Z,9.93
2019-03-16T22:06:30.276Z,9.92
2019-03-16T22:08:30.088Z,9.93
2019-03-16T22:12:30.120Z,9.93
2019-03-16T22:14:30.124Z,9.93
2019-03-16T22:18:30.105Z,9.93
2019-03-16T22:20:30.247Z,9.92
2019-03-16T22:24:30.220Z,9.93
2019-03-16T22:26:30.105Z,9.94
2019-03-16T22:30:30.398Z,9.95
2019-03-16T22:32:35.154Z,9.93
2019-03-16T22:36:30.248Z,9.94
2019-03-16T22:38:30.281Z,9.94
2019-03-16T22:42:30.256Z,9.94
2019-03-16T22:44:30.126Z,9.95
2019-03-16T22:48:30.333Z,9.95
2019-03-16T22:50:35.089Z,9.95
2019-03-16T22:54:33.056Z,9.95
2019-03-16T22:56:30.099Z,9.96
2019-03-16T23:00:30.274Z,9.95
2019-03-16T23:02:30.312Z,9.96
2019-03-16T23:06:30.125Z,9.98
2019-03-16T23:08:37.664Z,9.97
2019-03-16T23:12:30.112Z,9.97
2019-03-16T23:14:30.304Z,9.98
2019-03-16T23:18:30.249Z,9.97
2019-03-16T23:20:35.067Z,9.97
2019-03-16T23:24:31.846Z,9.97
2019-03-16T23:26:38.621Z,9.99
2019-03-16T23:30:30.105Z,9.98
2019-03-16T23:32:30.124Z,9.99
2019-03-16T23:36:30.323Z,9.99
2019-03-16T23:38:30.125Z,10.00
2019-03-16T23:42:30.135Z,10.00
2019-03-16T23:44:30.351Z,10.00
2019-03-16T23:48:30.134Z,10.01
2019-03-16T23:50:34.475Z,10.00
2019-03-16T23:54:30.179Z,9.99
2019-03-16T23:56:30.145Z,10.01
